Catàleg de serveis del Meteocat
Campanya meteocatpedra

Dades de l'estació automàtica Albesa

?
?
Resum diari 23:00 TU
Dades diàries de l'estació meteorològica
Temperatura mitjana 23.6 °C
Temperatura màxima 31.2 °C 15:04 TU
Temperatura mínima 15.2 °C 4:41 TU
Humitat relativa mitjana 57%
Precipitació acumulada 0.0 mm
Ratxa màxima del vent (2 m) 18.7 km/h - 236º 11:53 TU
Irradiació solar global 29.8 MJ/m2

El tram horari està expressat en Temps Universal (TU). Cal sumar una hora en horari d'hivern i dues en horari d'estiu per passar a l'hora oficial.

Albesa

Metadades estació meteorol´gica
Municipi Albesa
Comarca Noguera
Altitud 267 m
Data alta 21.06.1999
Estat actual Operativa
Dades de període
Període
TU
TM
°C
TX
°C
TN
°C
HRM
%
PPT
mm
VVM (2 m)
km/h
DVM (2 m)
graus
VVX (2 m)
km/h
RS
W/m2
00:00 - 00:30 19.4 19.5 19.3 73 0.0 2.2 216 6.1 0
00:30 - 01:00 18.8 19.4 18.3 75 0.0 0.7 199 4.3 0
01:00 - 01:30 18.3 18.4 18.3 78 0.0 1.8 202 5.0 0
01:30 - 02:00 17.9 18.2 17.5 80 0.0 1.8 197 4.7 0
02:00 - 02:30 17.5 17.6 17.1 79 0.0 2.2 194 6.1 0
02:30 - 03:00 16.8 17.1 16.8 81 0.0 1.8 196 4.7 0
03:00 - 03:30 16.8 16.9 16.7 78 0.0 1.8 196 5.8 0
03:30 - 04:00 16.2 16.7 15.9 81 0.0 0.4 154 2.9 0
04:00 - 04:30 15.6 15.9 15.4 86 0.0 0.4 166 2.2 0
04:30 - 05:00 15.5 16.1 15.2 85 0.0 0.7 156 3.2 10
05:00 - 05:30 16.0 17.2 15.5 83 0.0 1.1 149 3.6 48
05:30 - 06:00 17.7 18.2 17.3 74 0.0 2.2 131 4.3 134
06:00 - 06:30 18.7 19.3 18.1 70 0.0 2.2 119 4.7 222
06:30 - 07:00 19.6 20.0 19.3 64 0.0 2.5 126 7.2 318
07:00 - 07:30 20.2 20.7 19.9 62 0.0 2.5 159 7.2 413
07:30 - 08:00 20.9 21.7 20.4 62 0.0 2.9 158 8.3 507
08:00 - 08:30 21.8 22.1 21.4 61 0.0 3.2 183 8.3 594
08:30 - 09:00 22.8 23.3 22.2 60 0.0 4.0 184 9.7 676
09:00 - 09:30 23.8 24.6 22.9 59 0.0 3.6 190 9.4 751
09:30 - 10:00 25.3 25.8 24.8 56 0.0 2.5 253 9.7 815
10:00 - 10:30 26.1 26.9 25.5 53 0.0 3.6 190 12.2 868
10:30 - 11:00 27.2 27.6 26.3 50 0.0 2.9 251 10.8 905
11:00 - 11:30 27.8 28.0 27.5 47 0.0 3.6 278 12.6 936
11:30 - 12:00 28.3 28.7 27.8 43 0.0 3.6 240 18.7 951
12:00 - 12:30 28.8 29.0 28.5 41 0.0 4.3 260 15.1 956
12:30 - 13:00 29.2 29.7 28.8 39 0.0 4.0 280 17.3 947
13:00 - 13:30 29.7 30.3 29.4 38 0.0 4.0 273 15.5 920
13:30 - 14:00 29.9 30.3 29.6 36 0.0 4.7 275 15.5 884
14:00 - 14:30 30.3 30.6 29.9 35 0.0 4.0 272 14.8 839
14:30 - 15:00 30.7 30.9 30.3 35 0.0 3.6 264 13.3 783
15:00 - 15:30 31.0 31.2 30.8 33 0.0 2.9 266 10.4 710
15:30 - 16:00 30.8 31.0 30.7 33 0.0 3.6 254 12.6 623
16:00 - 16:30 30.9 31.1 30.6 32 0.0 3.2 259 14.4 539
16:30 - 17:00 30.7 30.8 30.6 32 0.0 3.2 262 11.5 446
17:00 - 17:30 30.3 30.6 30.0 33 0.0 2.5 272 9.7 350
17:30 - 18:00 29.5 30.1 28.7 35 0.0 2.2 276 9.0 240
18:00 - 18:30 28.4 28.7 27.8 37 0.0 2.2 264 6.5 128
18:30 - 19:00 27.2 27.7 26.6 39 0.0 2.2 260 9.4 36
19:00 - 19:30 25.3 26.5 24.3 45 0.0 1.4 263 6.8 13
19:30 - 20:00 24.4 24.8 24.0 46 0.0 2.2 273 6.8 1
20:00 - 20:30 23.6 24.2 23.0 47 0.0 1.8 263 6.5 0
20:30 - 21:00 22.6 23.0 21.5 52 0.0 1.8 258 5.0 0
21:00 - 21:30 21.0 21.8 20.3 66 0.0 2.9 60 9.0 0
21:30 - 22:00 21.6 22.2 21.1 74 0.0 6.1 65 14.8 0
22:00 - 22:30 22.2 22.3 22.0 73 0.0 7.6 100 14.4 0
22:30 - 23:00 21.6 22.0 21.2 75 0.0 5.4 95 11.9 0
23:00 - 23:30 20.9 21.2 20.7 78 0.0 5.0 107 12.2 0

Les dades en taronja només han passat un control de qualitat automàtic. Resta pendent la seva validació definitiva.